createdAt,value
2019-01-25T00:01:18.286Z,82.08
2019-01-25T00:03:45.916Z,81.79
2019-01-25T00:06:13.595Z,82.26
2019-01-25T00:08:41.156Z,82.47
2019-01-25T00:11:08.707Z,82.56
2019-01-25T00:13:36.461Z,83.25
2019-01-25T00:16:04.799Z,83.27
2019-01-25T00:18:32.670Z,83.48
2019-01-25T00:21:00.272Z,84.09
2019-01-25T00:23:27.796Z,83.98
2019-01-25T00:25:55.326Z,84.42
2019-01-25T00:28:22.925Z,84.66
2019-01-25T00:30:50.578Z,84.14
2019-01-25T00:33:19.298Z,84.10
2019-01-25T00:35:46.963Z,84.79
2019-01-25T00:38:14.642Z,84.69
2019-01-25T00:40:42.396Z,83.61
2019-01-25T00:43:10.153Z,84.01
2019-01-25T00:45:37.869Z,84.73
2019-01-25T00:48:05.582Z,83.94
2019-01-25T00:50:33.412Z,83.70
2019-01-25T00:53:01.141Z,83.82
2019-01-25T00:55:28.811Z,84.84
2019-01-25T00:57:56.481Z,83.75
2019-01-25T01:00:25.108Z,83.89
2019-01-25T01:02:55.770Z,84.58
2019-01-25T01:05:23.513Z,84.25
2019-01-25T01:07:51.674Z,84.60
2019-01-25T01:10:21.335Z,84.50
2019-01-25T01:12:49.711Z,85.51
2019-01-25T01:15:17.495Z,84.71
2019-01-25T01:17:45.364Z,84.75
2019-01-25T01:20:15.000Z,85.55
2019-01-25T01:22:42.733Z,86.27
2019-01-25T01:25:11.607Z,85.80
2019-01-25T01:27:39.313Z,85.36
2019-01-25T01:30:09.752Z,85.09
2019-01-25T01:32:37.307Z,85.29
2019-01-25T01:35:05.175Z,86.34
2019-01-25T01:37:32.743Z,85.90
2019-01-25T01:40:00.504Z,86.32
2019-01-25T01:42:28.089Z,86.13
2019-01-25T01:44:55.727Z,85.72
2019-01-25T01:47:23.367Z,86.59
2019-01-25T01:49:51.160Z,86.71
2019-01-25T01:52:18.728Z,86.65
2019-01-25T01:54:46.420Z,86.93
2019-01-25T01:57:13.987Z,87.05
2019-01-25T01:59:44.551Z,86.38
2019-01-25T02:02:12.785Z,86.49
2019-01-25T02:04:40.374Z,87.17
2019-01-25T02:07:08.381Z,86.89
2019-01-25T02:09:36.064Z,86.28
2019-01-25T02:12:03.608Z,86.32
2019-01-25T02:14:31.281Z,87.01
2019-01-25T02:16:58.957Z,86.73
2019-01-25T02:19:26.528Z,87.58
2019-01-25T02:21:54.127Z,87.31
2019-01-25T02:24:21.763Z,87.77
2019-01-25T02:26:49.380Z,88.72
2019-01-25T02:29:17.010Z,88.37
2019-01-25T02:31:44.804Z,87.67
2019-01-25T02:34:12.499Z,88.26
2019-01-25T02:36:41.947Z,87.16
2019-01-25T02:39:09.528Z,87.36
2019-01-25T02:41:37.227Z,88.09
2019-01-25T02:44:04.940Z,88.38
2019-01-25T02:46:32.540Z,87.47
2019-01-25T02:49:00.161Z,87.28
2019-01-25T02:51:27.696Z,87.69
2019-01-25T02:53:55.267Z,89.99
2019-01-25T02:56:22.952Z,87.85
2019-01-25T02:58:50.520Z,88.35
2019-01-25T03:01:18.055Z,88.27
2019-01-25T03:03:45.723Z,88.68
2019-01-25T03:06:13.317Z,88.58
2019-01-25T03:08:40.871Z,88.91
2019-01-25T03:11:08.635Z,89.11
2019-01-25T03:13:36.250Z,90.16
2019-01-25T03:16:03.764Z,90.01
2019-01-25T03:18:31.378Z,88.81
2019-01-25T03:20:58.963Z,89.67
2019-01-25T03:23:26.488Z,89.09
2019-01-25T03:25:56.042Z,88.59
2019-01-25T03:28:23.625Z,89.70
2019-01-25T03:30:51.293Z,88.39
2019-01-25T03:33:18.905Z,88.48
2019-01-25T03:35:46.513Z,88.88
2019-01-25T03:38:14.224Z,88.53
2019-01-25T03:40:42.065Z,87.93
2019-01-25T03:43:09.764Z,88.65
2019-01-25T03:45:37.353Z,88.83
2019-01-25T03:48:05.184Z,88.89
2019-01-25T03:50:32.879Z,88.77
2019-01-25T03:53:00.486Z,88.67
2019-01-25T03:55:28.190Z,89.72
2019-01-25T03:57:55.865Z,88.68
2019-01-25T04:00:26.954Z,88.97
2019-01-25T04:02:54.570Z,88.53
2019-01-25T04:05:22.271Z,89.63
2019-01-25T04:07:49.888Z,89.28
2019-01-25T04:10:19.606Z,89.23
2019-01-25T04:12:47.282Z,89.37
2019-01-25T04:15:22.886Z,89.31
2019-01-25T04:17:50.569Z,89.49
2019-01-25T04:20:18.386Z,89.44
2019-01-25T04:22:46.091Z,89.32
2019-01-25T04:25:15.952Z,89.32
2019-01-25T04:27:43.700Z,90.21
2019-01-25T04:30:14.440Z,90.54
2019-01-25T04:32:42.163Z,90.32
2019-01-25T04:35:09.872Z,90.04
2019-01-25T04:37:37.577Z,90.53
2019-01-25T04:40:07.371Z,90.00
2019-01-25T04:42:35.066Z,90.21
2019-01-25T04:45:03.198Z,90.42
2019-01-25T04:47:30.844Z,90.54
2019-01-25T04:49:58.537Z,90.45
2019-01-25T04:52:26.182Z,90.47
2019-01-25T04:54:53.898Z,91.39
2019-01-25T04:57:21.622Z,90.79
2019-01-25T04:59:49.314Z,90.78
2019-01-25T05:02:17.019Z,90.28
2019-01-25T05:04:44.723Z,90.44
2019-01-25T05:07:12.298Z,90.58
2019-01-25T05:09:40.051Z,91.10
2019-01-25T05:12:07.811Z,90.55
2019-01-25T05:14:35.589Z,89.85
2019-01-25T05:17:03.780Z,90.27
2019-01-25T05:19:38.101Z,90.33
2019-01-25T05:22:06.303Z,90.30
2019-01-25T05:24:34.133Z,90.76
2019-01-25T05:27:03.128Z,90.50
2019-01-25T05:29:53.871Z,90.81
2019-01-25T05:32:21.680Z,90.58
2019-01-25T05:34:49.344Z,90.08
2019-01-25T05:37:17.049Z,90.39
2019-01-25T05:39:44.707Z,90.66
2019-01-25T05:42:12.396Z,90.49
2019-01-25T05:44:39.961Z,91.05
2019-01-25T05:47:10.929Z,90.92
2019-01-25T05:49:38.591Z,91.71
2019-01-25T05:52:10.229Z,91.69
2019-01-25T05:54:37.841Z,92.01
2019-01-25T05:57:05.480Z,92.44
2019-01-25T05:59:33.082Z,91.90
2019-01-25T06:02:00.849Z,92.14
2019-01-25T06:04:33.395Z,91.83
2019-01-25T06:07:01.019Z,91.70
2019-01-25T06:09:28.637Z,91.57
2019-01-25T06:11:56.348Z,92.31
2019-01-25T06:14:23.882Z,92.54
2019-01-25T06:16:51.531Z,92.76
2019-01-25T06:19:19.127Z,92.69
2019-01-25T06:21:46.866Z,92.74
2019-01-25T06:24:14.452Z,92.71
2019-01-25T06:26:44.527Z,92.88
2019-01-25T06:29:12.115Z,92.58
2019-01-25T06:31:39.927Z,92.39
2019-01-25T06:34:08.214Z,92.08
2019-01-25T06:36:35.865Z,92.41
2019-01-25T06:39:06.922Z,92.17
2019-01-25T06:41:34.698Z,91.96
2019-01-25T06:44:02.451Z,91.94
2019-01-25T06:46:30.111Z,91.82
2019-01-25T06:48:57.878Z,91.68
2019-01-25T06:51:25.602Z,92.08
2019-01-25T06:53:53.353Z,92.45
2019-01-25T06:56:21.159Z,92.88
2019-01-25T06:59:06.932Z,93.40
2019-01-25T07:01:54.886Z,93.51
2019-01-25T07:04:22.614Z,93.69
2019-01-25T07:06:50.302Z,93.52
2019-01-25T07:09:18.026Z,93.77
2019-01-25T07:11:51.597Z,94.04
2019-01-25T07:14:15.419Z,94.08
2019-01-25T07:16:43.152Z,93.77
2019-01-25T07:19:10.815Z,93.56
2019-01-25T07:21:38.392Z,93.18
2019-01-25T07:24:06.149Z,92.92
2019-01-25T07:26:33.895Z,93.11
2019-01-25T07:29:01.541Z,93.00
2019-01-25T07:31:29.129Z,93.13
2019-01-25T07:33:56.800Z,93.11
2019-01-25T07:36:24.499Z,93.40
2019-01-25T07:38:52.155Z,93.23
2019-01-25T07:41:19.895Z,93.06
2019-01-25T07:43:47.622Z,92.85
2019-01-25T07:46:15.265Z,92.84
2019-01-25T07:48:43.087Z,92.87
2019-01-25T07:51:10.624Z,92.63
2019-01-25T07:53:38.289Z,92.50
2019-01-25T07:56:05.958Z,92.07
2019-01-25T07:58:33.694Z,91.92
2019-01-25T08:01:01.243Z,91.56
2019-01-25T08:03:28.988Z,91.25
2019-01-25T08:05:56.641Z,91.16
2019-01-25T08:08:24.314Z,91.25
2019-01-25T08:10:51.923Z,90.60
2019-01-25T08:13:19.616Z,89.95
2019-01-25T08:15:47.243Z,89.41
2019-01-25T08:18:15.020Z,89.76
2019-01-25T08:20:42.584Z,89.13
2019-01-25T08:23:10.320Z,88.22
2019-01-25T08:25:38.073Z,86.46
2019-01-25T08:28:05.767Z,85.98
2019-01-25T08:30:33.352Z,84.93
2019-01-25T08:33:01.167Z,84.25
2019-01-25T08:35:28.819Z,82.96
2019-01-25T08:37:56.502Z,81.92
2019-01-25T08:40:24.202Z,81.42
2019-01-25T08:42:51.970Z,81.19
2019-01-25T08:45:19.798Z,80.29
2019-01-25T08:47:47.549Z,79.13
2019-01-25T08:50:17.446Z,78.46
2019-01-25T08:52:45.237Z,78.15
2019-01-25T08:55:13.625Z,78.33
2019-01-25T08:57:41.417Z,78.02
2019-01-25T09:00:12.375Z,77.25
2019-01-25T09:02:40.087Z,75.12
2019-01-25T09:05:08.748Z,74.24
2019-01-25T09:07:36.384Z,74.31
2019-01-25T09:10:06.096Z,73.12
2019-01-25T09:12:33.745Z,73.98
2019-01-25T09:15:01.357Z,74.07
2019-01-25T09:17:30.417Z,73.19
2019-01-25T09:19:58.026Z,74.44
2019-01-25T09:22:25.738Z,73.41
2019-01-25T09:24:53.339Z,74.21
2019-01-25T09:27:21.014Z,75.36
2019-01-25T09:29:48.686Z,77.21
2019-01-25T09:32:16.407Z,77.51
2019-01-25T09:34:43.983Z,78.60
2019-01-25T09:37:11.579Z,78.18
2019-01-25T09:39:39.142Z,77.55
2019-01-25T09:42:09.673Z,77.72
2019-01-25T09:44:37.365Z,77.36
2019-01-25T09:47:04.987Z,77.73
2019-01-25T09:49:32.576Z,78.30
2019-01-25T09:52:00.189Z,79.09
2019-01-25T09:54:27.730Z,79.67
2019-01-25T09:56:55.438Z,79.41
2019-01-25T09:59:23.020Z,79.73
2019-01-25T10:01:50.778Z,79.13
2019-01-25T10:04:18.545Z,79.73
2019-01-25T10:06:46.719Z,79.82
2019-01-25T10:09:14.283Z,78.89
2019-01-25T10:11:41.992Z,77.52
2019-01-25T10:14:09.609Z,75.66
2019-01-25T10:16:37.240Z,74.90
2019-01-25T10:19:04.910Z,74.21
2019-01-25T10:21:32.576Z,73.61
2019-01-25T10:24:00.151Z,71.93
2019-01-25T10:26:27.948Z,71.08
2019-01-25T10:28:55.511Z,70.71
2019-01-25T10:31:23.234Z,70.59
2019-01-25T10:33:52.211Z,68.98
2019-01-25T10:36:19.897Z,71.17
2019-01-25T10:38:47.501Z,71.90
2019-01-25T10:41:15.149Z,70.62
2019-01-25T10:43:42.771Z,69.72
2019-01-25T10:46:11.402Z,69.90
2019-01-25T10:48:38.982Z,70.65
2019-01-25T10:51:06.681Z,69.96
2019-01-25T10:53:34.319Z,69.05
2019-01-25T10:56:02.114Z,67.68
2019-01-25T10:58:29.824Z,67.06
2019-01-25T11:00:57.459Z,67.55
2019-01-25T11:03:25.093Z,66.59
2019-01-25T11:05:52.865Z,66.89
2019-01-25T11:08:20.582Z,66.14
2019-01-25T11:10:48.270Z,66.89
2019-01-25T11:13:15.860Z,67.50
2019-01-25T11:15:43.556Z,68.37
2019-01-25T11:18:11.242Z,68.15
2019-01-25T11:20:38.927Z,67.35
2019-01-25T11:23:06.535Z,68.25
2019-01-25T11:25:36.564Z,68.14
2019-01-25T11:28:04.408Z,67.92
2019-01-25T11:30:32.246Z,68.21
2019-01-25T11:32:59.880Z,67.83
2019-01-25T11:35:27.630Z,68.22
2019-01-25T11:37:55.200Z,68.24
2019-01-25T11:40:25.321Z,68.01
2019-01-25T11:42:53.797Z,68.35
2019-01-25T11:45:21.487Z,68.25
2019-01-25T11:47:49.246Z,67.58
2019-01-25T11:50:17.261Z,67.74
2019-01-25T11:52:44.923Z,67.65
2019-01-25T11:55:12.697Z,67.10
2019-01-25T11:57:40.333Z,67.94
2019-01-25T12:00:15.039Z,68.36
2019-01-25T12:02:45.127Z,68.33
2019-01-25T12:05:13.824Z,69.18
2019-01-25T12:07:41.575Z,68.82
2019-01-25T12:10:10.841Z,69.42
2019-01-25T12:12:38.414Z,69.05
2019-01-25T12:15:09.063Z,69.21
2019-01-25T12:17:36.768Z,70.11
2019-01-25T12:20:06.378Z,70.43
2019-01-25T12:22:38.642Z,70.36
2019-01-25T12:25:07.311Z,70.12
2019-01-25T12:27:34.910Z,70.45
2019-01-25T12:30:03.735Z,70.69
2019-01-25T12:32:31.541Z,70.77
2019-01-25T12:34:59.228Z,70.61
2019-01-25T12:37:26.758Z,70.64
2019-01-25T12:39:54.491Z,69.34
2019-01-25T12:42:22.038Z,68.60
2019-01-25T12:44:49.832Z,67.45
2019-01-25T12:47:17.358Z,67.13
2019-01-25T12:49:45.006Z,66.96
2019-01-25T12:52:12.671Z,65.56
2019-01-25T12:54:40.317Z,65.72
2019-01-25T12:57:07.931Z,66.36
2019-01-25T12:59:35.981Z,65.98
2019-01-25T13:02:03.787Z,66.14
2019-01-25T13:04:31.482Z,66.32
2019-01-25T13:06:59.036Z,65.95
2019-01-25T13:09:26.615Z,65.92
2019-01-25T13:11:54.468Z,65.17
2019-01-25T13:14:22.041Z,64.83
2019-01-25T13:16:50.846Z,64.12
2019-01-25T13:19:18.552Z,64.15
2019-01-25T13:21:46.177Z,64.42
2019-01-25T13:24:13.752Z,64.09
2019-01-25T13:26:41.518Z,63.85
2019-01-25T13:29:09.100Z,64.22
2019-01-25T13:31:36.830Z,63.63
2019-01-25T13:34:04.707Z,63.26
2019-01-25T13:36:32.637Z,64.14
2019-01-25T13:39:00.742Z,64.42
2019-01-25T13:41:30.523Z,63.33
2019-01-25T13:43:58.714Z,66.46
2019-01-25T13:46:28.296Z,62.97
2019-01-25T13:48:56.286Z,63.51
2019-01-25T13:51:24.477Z,64.07
2019-01-25T13:53:52.165Z,63.34
2019-01-25T13:56:19.925Z,63.82
2019-01-25T13:58:47.649Z,63.55
2019-01-25T14:01:15.506Z,63.97
2019-01-25T14:03:43.356Z,64.36
2019-01-25T14:06:11.765Z,64.11
2019-01-25T14:08:40.776Z,63.75
2019-01-25T14:11:08.914Z,64.29
2019-01-25T14:13:36.964Z,66.99
2019-01-25T14:16:05.147Z,69.81
2019-01-25T14:18:33.086Z,59.90
2019-01-25T14:21:01.018Z,64.83
2019-01-25T14:23:29.333Z,61.82
2019-01-25T14:25:58.605Z,66.47
2019-01-25T14:28:26.684Z,60.39
2019-01-25T14:30:54.813Z,56.85
2019-01-25T14:33:22.533Z,59.32
2019-01-25T14:35:52.088Z,54.28
2019-01-25T14:38:19.789Z,53.23
2019-01-25T14:40:47.483Z,51.35
2019-01-25T14:43:15.210Z,55.71
2019-01-25T14:45:42.864Z,53.21
2019-01-25T14:48:10.646Z,49.97
2019-01-25T14:50:38.671Z,48.53
2019-01-25T14:53:07.242Z,49.08
2019-01-25T14:55:34.995Z,50.40
2019-01-25T14:58:02.675Z,50.19
2019-01-25T15:00:30.231Z,50.72
2019-01-25T15:02:57.935Z,50.88
2019-01-25T15:05:25.539Z,50.40
2019-01-25T15:07:53.230Z,51.27
2019-01-25T15:10:23.083Z,52.21
2019-01-25T15:12:52.404Z,53.15
2019-01-25T15:15:21.469Z,52.21
2019-01-25T15:17:49.630Z,52.14
2019-01-25T15:20:19.297Z,53.11
2019-01-25T15:22:47.260Z,53.79
2019-01-25T15:25:15.241Z,53.85
2019-01-25T15:27:43.351Z,53.66
2019-01-25T15:30:16.755Z,54.28
2019-01-25T15:32:44.790Z,55.13
2019-01-25T15:35:13.956Z,55.24
2019-01-25T15:37:41.756Z,55.84
2019-01-25T15:40:11.326Z,55.35
2019-01-25T15:42:39.453Z,55.12
2019-01-25T15:45:09.921Z,54.99
2019-01-25T15:47:37.755Z,56.22
2019-01-25T15:50:10.009Z,55.96
2019-01-25T15:52:37.575Z,55.85
2019-01-25T15:55:05.819Z,56.20
2019-01-25T15:57:33.490Z,56.64
2019-01-25T16:00:01.138Z,56.98
2019-01-25T16:02:28.884Z,57.23
2019-01-25T16:04:56.557Z,57.07
2019-01-25T16:07:24.156Z,56.89
2019-01-25T16:09:51.879Z,58.01
2019-01-25T16:12:19.600Z,58.20
2019-01-25T16:14:47.338Z,57.17
2019-01-25T16:17:15.592Z,57.50
2019-01-25T16:19:43.554Z,58.09
2019-01-25T16:22:11.488Z,58.51
2019-01-25T16:24:39.547Z,58.79
2019-01-25T16:27:07.142Z,58.88
2019-01-25T16:29:34.817Z,58.42
2019-01-25T16:32:02.411Z,59.15
2019-01-25T16:34:30.015Z,59.58
2019-01-25T16:36:57.705Z,59.19
2019-01-25T16:39:25.343Z,59.93
2019-01-25T16:41:52.963Z,59.95
2019-01-25T16:44:25.574Z,60.51
2019-01-25T16:46:50.171Z,60.38
2019-01-25T16:49:17.879Z,59.70
2019-01-25T16:51:45.465Z,68.05
2019-01-25T16:54:13.181Z,70.45
2019-01-25T16:56:40.983Z,72.07
2019-01-25T16:59:09.009Z,73.73
2019-01-25T17:01:36.980Z,75.49
2019-01-25T17:04:05.004Z,75.65
2019-01-25T17:06:32.959Z,76.57
2019-01-25T17:09:00.965Z,76.78
2019-01-25T17:11:29.039Z,77.94
2019-01-25T17:13:57.227Z,77.48
2019-01-25T17:16:25.320Z,78.41
2019-01-25T17:18:53.434Z,78.68
2019-01-25T17:21:21.344Z,78.66
2019-01-25T17:23:49.420Z,78.51
2019-01-25T17:26:17.803Z,78.54
2019-01-25T17:28:46.017Z,79.44
2019-01-25T17:31:13.758Z,78.51
2019-01-25T17:33:42.695Z,78.51
2019-01-25T17:36:10.431Z,78.92
2019-01-25T17:38:38.328Z,79.45
2019-01-25T17:41:06.089Z,79.09
2019-01-25T17:43:33.837Z,79.71
2019-01-25T17:46:01.395Z,78.82
2019-01-25T17:48:29.129Z,78.95
2019-01-25T17:50:56.729Z,78.46
2019-01-25T17:53:24.451Z,78.35
2019-01-25T17:55:54.610Z,78.49
2019-01-25T17:58:22.256Z,78.52
2019-01-25T18:00:54.431Z,79.16
2019-01-25T18:03:24.561Z,77.95
2019-01-25T18:05:52.167Z,78.17
2019-01-25T18:08:19.769Z,78.58
2019-01-25T18:10:48.464Z,78.38
2019-01-25T18:13:16.168Z,77.85
2019-01-25T18:15:43.832Z,78.13
2019-01-25T18:18:11.692Z,78.28
2019-01-25T18:20:39.365Z,77.43
2019-01-25T18:23:07.073Z,77.44
2019-01-25T18:25:38.423Z,77.30
2019-01-25T18:28:07.788Z,78.25
2019-01-25T18:30:42.382Z,76.62
2019-01-25T18:33:10.005Z,76.97
2019-01-25T18:35:37.602Z,76.09
2019-01-25T18:38:05.437Z,75.43
2019-01-25T18:40:36.011Z,75.82
2019-01-25T18:43:04.231Z,75.15
2019-01-25T18:45:31.910Z,74.87
2019-01-25T18:47:59.680Z,73.88
2019-01-25T18:50:27.361Z,73.17
2019-01-25T18:52:55.051Z,72.87
2019-01-25T18:55:22.652Z,72.90
2019-01-25T18:57:50.328Z,73.03
2019-01-25T19:00:18.901Z,73.25
2019-01-25T19:02:46.532Z,73.30
2019-01-25T19:05:14.736Z,72.09
2019-01-25T19:07:42.404Z,70.73
2019-01-25T19:10:13.324Z,70.99
2019-01-25T19:12:40.942Z,69.78
2019-01-25T19:15:10.590Z,70.41
2019-01-25T19:17:38.401Z,70.49
2019-01-25T19:20:08.412Z,69.04
2019-01-25T19:22:36.104Z,67.41
2019-01-25T19:25:04.624Z,68.19
2019-01-25T19:27:32.332Z,67.13
2019-01-25T19:29:59.897Z,66.40
2019-01-25T19:32:27.706Z,65.93
2019-01-25T19:34:55.326Z,65.65
2019-01-25T19:37:23.080Z,66.02
2019-01-25T19:39:50.762Z,66.25
2019-01-25T19:42:18.565Z,66.09
2019-01-25T19:44:46.295Z,66.32
2019-01-25T19:47:14.050Z,65.71
2019-01-25T19:49:41.799Z,64.84
2019-01-25T19:52:09.818Z,66.13
2019-01-25T19:54:37.625Z,64.67
2019-01-25T19:57:05.287Z,64.66
2019-01-25T19:59:33.063Z,64.32
2019-01-25T20:02:00.917Z,65.30
2019-01-25T20:04:28.765Z,64.58
2019-01-25T20:06:56.498Z,63.97
2019-01-25T20:09:24.135Z,63.92
2019-01-25T20:11:51.829Z,64.38
2019-01-25T20:14:19.522Z,64.04
2019-01-25T20:16:47.271Z,63.76
2019-01-25T20:19:15.112Z,63.50
2019-01-25T20:21:44.019Z,64.23
2019-01-25T20:24:11.830Z,63.53
2019-01-25T20:26:39.529Z,63.46
2019-01-25T20:29:10.531Z,63.02
2019-01-25T20:31:38.390Z,63.42
2019-01-25T20:34:06.069Z,63.69
2019-01-25T20:36:34.124Z,63.00
2019-01-25T20:39:03.707Z,63.06
2019-01-25T20:41:33.142Z,63.75
2019-01-25T20:44:00.906Z,62.98
2019-01-25T20:46:28.628Z,63.84
2019-01-25T20:48:56.424Z,62.88
2019-01-25T20:51:24.289Z,63.12
2019-01-25T20:53:52.105Z,62.76
2019-01-25T20:56:19.970Z,62.62
2019-01-25T20:58:47.751Z,62.85
2019-01-25T21:01:15.784Z,63.11
2019-01-25T21:03:43.482Z,62.59
2019-01-25T21:06:11.534Z,62.63
2019-01-25T21:08:39.201Z,62.38
2019-01-25T21:11:07.052Z,62.99
2019-01-25T21:13:34.871Z,63.27
2019-01-25T21:16:02.609Z,65.35
2019-01-25T21:18:30.330Z,64.12
2019-01-25T21:20:58.038Z,63.22
2019-01-25T21:23:25.640Z,63.66
2019-01-25T21:25:53.367Z,62.57
2019-01-25T21:28:20.969Z,62.49
2019-01-25T21:30:48.700Z,62.63
2019-01-25T21:33:16.281Z,62.87
2019-01-25T21:35:43.989Z,62.93
2019-01-25T21:38:11.715Z,62.91
2019-01-25T21:40:39.536Z,62.40
2019-01-25T21:43:07.169Z,62.47
2019-01-25T21:45:42.661Z,62.56
2019-01-25T21:48:11.338Z,62.79
2019-01-25T21:50:40.402Z,63.43
2019-01-25T21:53:08.140Z,63.00
2019-01-25T21:55:35.892Z,63.54
2019-01-25T21:58:05.637Z,62.82
2019-01-25T22:00:33.957Z,63.10
2019-01-25T22:03:01.786Z,63.58
2019-01-25T22:05:29.660Z,63.71
2019-01-25T22:07:58.548Z,63.58
2019-01-25T22:10:38.191Z,62.92
2019-01-25T22:13:05.908Z,63.38
2019-01-25T22:15:34.752Z,63.67
2019-01-25T22:18:02.743Z,63.95
2019-01-25T22:20:30.534Z,64.34
2019-01-25T22:22:58.315Z,64.39
2019-01-25T22:25:26.017Z,64.70
2019-01-25T22:27:55.148Z,63.80
2019-01-25T22:30:23.607Z,63.37
2019-01-25T22:32:51.313Z,63.07
2019-01-25T22:35:19.220Z,63.15
2019-01-25T22:37:47.179Z,63.94
2019-01-25T22:40:17.172Z,62.72
2019-01-25T22:42:44.757Z,62.96
2019-01-25T22:45:14.433Z,63.98
2019-01-25T22:47:42.070Z,63.46
2019-01-25T22:50:13.176Z,63.62
2019-01-25T22:52:40.789Z,64.07
2019-01-25T22:55:10.446Z,65.07
2019-01-25T22:57:38.166Z,64.26
2019-01-25T23:00:51.504Z,64.70
2019-01-25T23:03:22.664Z,64.53
2019-01-25T23:06:44.109Z,64.01
2019-01-25T23:09:15.194Z,64.21
2019-01-25T23:11:42.914Z,64.48
2019-01-25T23:14:10.542Z,64.56
2019-01-25T23:16:40.035Z,66.53
2019-01-25T23:19:07.783Z,66.36
2019-01-25T23:21:35.505Z,64.97
2019-01-25T23:24:03.349Z,65.51
2019-01-25T23:26:31.017Z,65.74
2019-01-25T23:28:58.567Z,65.68
2019-01-25T23:31:27.219Z,66.19
2019-01-25T23:33:54.821Z,65.55
2019-01-25T23:36:22.562Z,66.04
2019-01-25T23:38:50.230Z,65.89
2019-01-25T23:41:17.930Z,65.46
2019-01-25T23:43:45.628Z,64.78
2019-01-25T23:46:13.970Z,65.30
2019-01-25T23:48:41.968Z,65.29
2019-01-25T23:51:09.649Z,65.31
2019-01-25T23:53:38.196Z,66.10
2019-01-25T23:56:05.864Z,66.40
2019-01-25T23:58:33.439Z,66.48
